sensor_id;sensor_type;location;lat;lon;timestamp;P1;durP1;ratioP1;P2;durP2;ratioP2
47381;SDS011;33128;51.580;5.170;2023-02-28T00:01:11;17.98;;;16.88;;
47381;SDS011;33128;51.580;5.170;2023-02-28T00:03:37;18.30;;;16.88;;
47381;SDS011;33128;51.580;5.170;2023-02-28T00:06:06;36.33;;;34.03;;
47381;SDS011;33128;51.580;5.170;2023-02-28T00:08:34;17.90;;;16.90;;
47381;SDS011;33128;51.580;5.170;2023-02-28T00:11:04;19.83;;;18.60;;
47381;SDS011;33128;51.580;5.170;2023-02-28T00:13:31;51.05;;;46.47;;
47381;SDS011;33128;51.580;5.170;2023-02-28T00:16:02;29.92;;;28.17;;
47381;SDS011;33128;51.580;5.170;2023-02-28T00:18:34;17.85;;;16.90;;
47381;SDS011;33128;51.580;5.170;2023-02-28T00:20:59;16.38;;;15.48;;
47381;SDS011;33128;51.580;5.170;2023-02-28T00:23:25;19.02;;;18.13;;
47381;SDS011;33128;51.580;5.170;2023-02-28T00:25:52;26.80;;;25.25;;
47381;SDS011;33128;51.580;5.170;2023-02-28T00:28:18;16.25;;;15.50;;
47381;SDS011;33128;51.580;5.170;2023-02-28T00:30:44;16.35;;;15.65;;
47381;SDS011;33128;51.580;5.170;2023-02-28T00:33:10;17.80;;;16.80;;
47381;SDS011;33128;51.580;5.170;2023-02-28T00:35:35;16.70;;;15.82;;
47381;SDS011;33128;51.580;5.170;2023-02-28T00:38:01;17.13;;;16.20;;
47381;SDS011;33128;51.580;5.170;2023-02-28T00:40:27;17.85;;;16.27;;
47381;SDS011;33128;51.580;5.170;2023-02-28T00:42:53;17.90;;;17.08;;
47381;SDS011;33128;51.580;5.170;2023-02-28T00:45:19;16.98;;;15.82;;
47381;SDS011;33128;51.580;5.170;2023-02-28T00:47:44;16.92;;;15.93;;
47381;SDS011;33128;51.580;5.170;2023-02-28T00:50:11;15.60;;;14.90;;
47381;SDS011;33128;51.580;5.170;2023-02-28T00:52:37;15.82;;;14.85;;
47381;SDS011;33128;51.580;5.170;2023-02-28T00:55:03;16.83;;;15.63;;
47381;SDS011;33128;51.580;5.170;2023-02-28T00:57:29;16.92;;;16.05;;
47381;SDS011;33128;51.580;5.170;2023-02-28T00:59:57;16.65;;;15.82;;
47381;SDS011;33128;51.580;5.170;2023-02-28T01:02:23;17.67;;;16.52;;
47381;SDS011;33128;51.580;5.170;2023-02-28T01:04:49;18.92;;;17.83;;
47381;SDS011;33128;51.580;5.170;2023-02-28T01:07:14;17.17;;;16.48;;
47381;SDS011;33128;51.580;5.170;2023-02-28T01:09:40;16.73;;;15.80;;
47381;SDS011;33128;51.580;5.170;2023-02-28T01:12:07;17.42;;;16.33;;
47381;SDS011;33128;51.580;5.170;2023-02-28T01:14:33;17.60;;;16.85;;
47381;SDS011;33128;51.580;5.170;2023-02-28T01:16:59;32.40;;;30.40;;
47381;SDS011;33128;51.580;5.170;2023-02-28T01:19:25;20.70;;;19.45;;
47381;SDS011;33128;51.580;5.170;2023-02-28T01:21:51;17.83;;;17.13;;
47381;SDS011;33128;51.580;5.170;2023-02-28T01:24:16;18.33;;;17.48;;
47381;SDS011;33128;51.580;5.170;2023-02-28T01:26:42;17.35;;;16.65;;
47381;SDS011;33128;51.580;5.170;2023-02-28T01:29:07;37.63;;;35.35;;
47381;SDS011;33128;51.580;5.170;2023-02-28T01:31:33;21.48;;;20.20;;
47381;SDS011;33128;51.580;5.170;2023-02-28T01:33:59;17.83;;;17.02;;
47381;SDS011;33128;51.580;5.170;2023-02-28T01:36:25;17.67;;;16.70;;
47381;SDS011;33128;51.580;5.170;2023-02-28T01:38:50;103.90;;;96.80;;
47381;SDS011;33128;51.580;5.170;2023-02-28T01:41:23;455.35;;;425.60;;
47381;SDS011;33128;51.580;5.170;2023-02-28T01:46:18;17.77;;;16.88;;
47381;SDS011;33128;51.580;5.170;2023-02-28T01:51:20;18.75;;;17.75;;
47381;SDS011;33128;51.580;5.170;2023-02-28T01:53:50;18.70;;;17.70;;
47381;SDS011;33128;51.580;5.170;2023-02-28T01:56:24;17.95;;;17.00;;
47381;SDS011;33128;51.580;5.170;2023-02-28T01:58:54;16.92;;;16.23;;
47381;SDS011;33128;51.580;5.170;2023-02-28T02:01:20;17.55;;;16.75;;
47381;SDS011;33128;51.580;5.170;2023-02-28T02:03:53;17.77;;;16.88;;
47381;SDS011;33128;51.580;5.170;2023-02-28T02:06:26;17.38;;;16.67;;
47381;SDS011;33128;51.580;5.170;2023-02-28T02:08:55;17.25;;;16.55;;
47381;SDS011;33128;51.580;5.170;2023-02-28T02:11:22;17.38;;;16.67;;
47381;SDS011;33128;51.580;5.170;2023-02-28T02:39:53;17.30;;;16.63;;
47381;SDS011;33128;51.580;5.170;2023-02-28T02:42:38;17.08;;;16.38;;
47381;SDS011;33128;51.580;5.170;2023-02-28T02:45:25;19.83;;;18.52;;
47381;SDS011;33128;51.580;5.170;2023-02-28T02:48:01;17.23;;;16.60;;
47381;SDS011;33128;51.580;5.170;2023-02-28T02:50:41;17.77;;;16.98;;
47381;SDS011;33128;51.580;5.170;2023-02-28T02:53:10;18.33;;;17.52;;
47381;SDS011;33128;51.580;5.170;2023-02-28T02:55:40;18.00;;;17.25;;
47381;SDS011;33128;51.580;5.170;2023-02-28T02:58:10;18.48;;;17.77;;
47381;SDS011;33128;51.580;5.170;2023-02-28T03:00:49;17.90;;;17.10;;
47381;SDS011;33128;51.580;5.170;2023-02-28T03:03:18;19.00;;;18.15;;
47381;SDS011;33128;51.580;5.170;2023-02-28T03:05:54;17.52;;;16.83;;
47381;SDS011;33128;51.580;5.170;2023-02-28T03:08:24;18.55;;;17.70;;
47381;SDS011;33128;51.580;5.170;2023-02-28T03:10:52;18.80;;;17.80;;
47381;SDS011;33128;51.580;5.170;2023-02-28T03:16:34;223.02;;;205.43;;
47381;SDS011;33128;51.580;5.170;2023-02-28T03:19:17;22.65;;;21.70;;
47381;SDS011;33128;51.580;5.170;2023-02-28T03:24:57;19.63;;;18.52;;
47381;SDS011;33128;51.580;5.170;2023-02-28T03:30:24;19.63;;;18.73;;
47381;SDS011;33128;51.580;5.170;2023-02-28T03:32:58;47.00;;;43.40;;
47381;SDS011;33128;51.580;5.170;2023-02-28T03:35:32;612.83;;;559.40;;
47381;SDS011;33128;51.580;5.170;2023-02-28T03:38:08;696.20;;;633.80;;
47381;SDS011;33128;51.580;5.170;2023-02-28T03:40:55;627.25;;;571.25;;
47381;SDS011;33128;51.580;5.170;2023-02-28T03:43:34;646.78;;;590.63;;
47381;SDS011;33128;51.580;5.170;2023-02-28T03:46:04;596.58;;;543.65;;
47381;SDS011;33128;51.580;5.170;2023-02-28T03:48:39;67.57;;;60.90;;
47381;SDS011;33128;51.580;5.170;2023-02-28T03:51:09;296.13;;;269.87;;
47381;SDS011;33128;51.580;5.170;2023-02-28T03:53:40;17.92;;;16.75;;
47381;SDS011;33128;51.580;5.170;2023-02-28T03:56:14;17.90;;;17.00;;
47381;SDS011;33128;51.580;5.170;2023-02-28T04:01:40;259.55;;;237.68;;
47381;SDS011;33128;51.580;5.170;2023-02-28T04:04:08;245.13;;;228.80;;
47381;SDS011;33128;51.580;5.170;2023-02-28T04:06:34;17.20;;;16.40;;
47381;SDS011;33128;51.580;5.170;2023-02-28T04:09:00;16.33;;;15.68;;
47381;SDS011;33128;51.580;5.170;2023-02-28T04:14:07;192.20;;;175.65;;
47381;SDS011;33128;51.580;5.170;2023-02-28T04:16:34;107.07;;;101.10;;
47381;SDS011;33128;51.580;5.170;2023-02-28T04:19:02;17.83;;;16.92;;
47381;SDS011;33128;51.580;5.170;2023-02-28T04:21:33;27.67;;;26.15;;
47381;SDS011;33128;51.580;5.170;2023-02-28T04:24:01;162.95;;;150.10;;
47381;SDS011;33128;51.580;5.170;2023-02-28T04:26:30;563.72;;;517.10;;
47381;SDS011;33128;51.580;5.170;2023-02-28T04:29:00;297.30;;;271.63;;
47381;SDS011;33128;51.580;5.170;2023-02-28T04:31:26;15.75;;;15.15;;
47381;SDS011;33128;51.580;5.170;2023-02-28T04:33:52;15.93;;;15.23;;
47381;SDS011;33128;51.580;5.170;2023-02-28T04:36:18;36.95;;;35.08;;
47381;SDS011;33128;51.580;5.170;2023-02-28T04:38:44;16.55;;;15.75;;
47381;SDS011;33128;51.580;5.170;2023-02-28T04:41:10;15.77;;;15.18;;
47381;SDS011;33128;51.580;5.170;2023-02-28T04:43:36;16.92;;;16.02;;
47381;SDS011;33128;51.580;5.170;2023-02-28T04:46:02;15.57;;;14.88;;
47381;SDS011;33128;51.580;5.170;2023-02-28T04:48:30;16.52;;;15.27;;
47381;SDS011;33128;51.580;5.170;2023-02-28T04:51:00;15.82;;;15.23;;
47381;SDS011;33128;51.580;5.170;2023-02-28T04:53:28;17.10;;;15.93;;
47381;SDS011;33128;51.580;5.170;2023-02-28T04:55:54;16.00;;;15.30;;
47381;SDS011;33128;51.580;5.170;2023-02-28T04:58:21;14.15;;;13.55;;
47381;SDS011;33128;51.580;5.170;2023-02-28T05:00:50;16.70;;;15.98;;
47381;SDS011;33128;51.580;5.170;2023-02-28T05:03:16;15.10;;;14.60;;
47381;SDS011;33128;51.580;5.170;2023-02-28T05:05:42;24.38;;;16.85;;
47381;SDS011;33128;51.580;5.170;2023-02-28T05:08:07;13.77;;;13.18;;
47381;SDS011;33128;51.580;5.170;2023-02-28T05:10:34;14.73;;;14.02;;
47381;SDS011;33128;51.580;5.170;2023-02-28T05:13:00;16.30;;;15.50;;
47381;SDS011;33128;51.580;5.170;2023-02-28T05:15:26;13.88;;;13.20;;
47381;SDS011;33128;51.580;5.170;2023-02-28T05:17:52;15.15;;;14.55;;
47381;SDS011;33128;51.580;5.170;2023-02-28T05:20:18;15.90;;;15.20;;
47381;SDS011;33128;51.580;5.170;2023-02-28T05:22:44;15.20;;;14.60;;
47381;SDS011;33128;51.580;5.170;2023-02-28T05:25:16;14.38;;;13.80;;
47381;SDS011;33128;51.580;5.170;2023-02-28T05:27:44;12.60;;;12.10;;
47381;SDS011;33128;51.580;5.170;2023-02-28T05:30:10;13.13;;;12.63;;
47381;SDS011;33128;51.580;5.170;2023-02-28T05:32:40;14.57;;;13.75;;
47381;SDS011;33128;51.580;5.170;2023-02-28T05:35:12;14.73;;;13.68;;
47381;SDS011;33128;51.580;5.170;2023-02-28T05:37:40;12.90;;;12.40;;
47381;SDS011;33128;51.580;5.170;2023-02-28T05:40:06;13.10;;;12.43;;
47381;SDS011;33128;51.580;5.170;2023-02-28T05:42:35;13.10;;;12.60;;
47381;SDS011;33128;51.580;5.170;2023-02-28T05:45:01;13.52;;;12.68;;
47381;SDS011;33128;51.580;5.170;2023-02-28T05:47:26;12.35;;;11.85;;
47381;SDS011;33128;51.580;5.170;2023-02-28T05:49:52;12.50;;;12.00;;
47381;SDS011;33128;51.580;5.170;2023-02-28T05:52:17;12.57;;;11.93;;
47381;SDS011;33128;51.580;5.170;2023-02-28T05:54:43;13.35;;;12.68;;
47381;SDS011;33128;51.580;5.170;2023-02-28T05:57:08;12.52;;;12.02;;
47381;SDS011;33128;51.580;5.170;2023-02-28T05:59:34;14.73;;;14.00;;
47381;SDS011;33128;51.580;5.170;2023-02-28T06:02:04;13.32;;;12.73;;
47381;SDS011;33128;51.580;5.170;2023-02-28T06:04:30;14.43;;;13.65;;
47381;SDS011;33128;51.580;5.170;2023-02-28T06:06:56;12.77;;;12.10;;
47381;SDS011;33128;51.580;5.170;2023-02-28T06:09:22;12.25;;;11.75;;
47381;SDS011;33128;51.580;5.170;2023-02-28T06:11:48;12.10;;;11.60;;
47381;SDS011;33128;51.580;5.170;2023-02-28T06:14:15;12.63;;;12.02;;
47381;SDS011;33128;51.580;5.170;2023-02-28T06:16:43;12.23;;;11.73;;
47381;SDS011;33128;51.580;5.170;2023-02-28T06:19:09;12.07;;;11.55;;
47381;SDS011;33128;51.580;5.170;2023-02-28T06:21:35;13.10;;;12.35;;
47381;SDS011;33128;51.580;5.170;2023-02-28T06:24:02;14.38;;;13.55;;
47381;SDS011;33128;51.580;5.170;2023-02-28T06:26:28;13.40;;;12.52;;
47381;SDS011;33128;51.580;5.170;2023-02-28T06:28:54;13.25;;;12.65;;
47381;SDS011;33128;51.580;5.170;2023-02-28T06:31:20;12.48;;;11.88;;
47381;SDS011;33128;51.580;5.170;2023-02-28T06:33:46;12.43;;;11.82;;
47381;SDS011;33128;51.580;5.170;2023-02-28T06:36:13;12.52;;;11.82;;
47381;SDS011;33128;51.580;5.170;2023-02-28T06:38:41;13.35;;;12.65;;
47381;SDS011;33128;51.580;5.170;2023-02-28T06:41:07;12.65;;;11.85;;
47381;SDS011;33128;51.580;5.170;2023-02-28T06:43:36;13.25;;;12.45;;
47381;SDS011;33128;51.580;5.170;2023-02-28T06:46:04;12.18;;;11.57;;
47381;SDS011;33128;51.580;5.170;2023-02-28T06:48:31;12.20;;;11.55;;
47381;SDS011;33128;51.580;5.170;2023-02-28T06:51:01;12.48;;;11.73;;
47381;SDS011;33128;51.580;5.170;2023-02-28T06:53:28;13.40;;;12.35;;
47381;SDS011;33128;51.580;5.170;2023-02-28T06:55:53;11.45;;;10.95;;
47381;SDS011;33128;51.580;5.170;2023-02-28T06:58:19;12.07;;;11.27;;
47381;SDS011;33128;51.580;5.170;2023-02-28T07:00:45;12.35;;;11.75;;
47381;SDS011;33128;51.580;5.170;2023-02-28T07:03:15;11.73;;;11.13;;
47381;SDS011;33128;51.580;5.170;2023-02-28T07:05:42;12.27;;;11.43;;
47381;SDS011;33128;51.580;5.170;2023-02-28T07:08:08;11.52;;;10.93;;
47381;SDS011;33128;51.580;5.170;2023-02-28T07:10:33;10.48;;;9.75;;
47381;SDS011;33128;51.580;5.170;2023-02-28T07:13:00;11.80;;;11.30;;
47381;SDS011;33128;51.580;5.170;2023-02-28T07:15:25;11.80;;;11.20;;
47381;SDS011;33128;51.580;5.170;2023-02-28T07:17:51;12.80;;;11.95;;
47381;SDS011;33128;51.580;5.170;2023-02-28T07:20:17;11.90;;;11.30;;
47381;SDS011;33128;51.580;5.170;2023-02-28T07:22:42;12.07;;;11.38;;
47381;SDS011;33128;51.580;5.170;2023-02-28T07:25:08;11.57;;;10.98;;
47381;SDS011;33128;51.580;5.170;2023-02-28T07:27:34;11.45;;;10.93;;
47381;SDS011;33128;51.580;5.170;2023-02-28T07:29:59;11.77;;;11.00;;
47381;SDS011;33128;51.580;5.170;2023-02-28T07:32:26;11.38;;;10.75;;
47381;SDS011;33128;51.580;5.170;2023-02-28T07:34:53;12.18;;;11.57;;
47381;SDS011;33128;51.580;5.170;2023-02-28T07:37:18;12.63;;;11.85;;
47381;SDS011;33128;51.580;5.170;2023-02-28T07:39:44;10.82;;;10.32;;
47381;SDS011;33128;51.580;5.170;2023-02-28T07:42:10;10.88;;;10.38;;
47381;SDS011;33128;51.580;5.170;2023-02-28T07:44:37;10.25;;;9.80;;
47381;SDS011;33128;51.580;5.170;2023-02-28T07:47:06;10.80;;;10.10;;
47381;SDS011;33128;51.580;5.170;2023-02-28T07:49:33;10.73;;;10.23;;
47381;SDS011;33128;51.580;5.170;2023-02-28T07:51:59;11.10;;;10.55;;
47381;SDS011;33128;51.580;5.170;2023-02-28T07:54:25;11.30;;;10.70;;
47381;SDS011;33128;51.580;5.170;2023-02-28T07:56:50;10.95;;;10.45;;
47381;SDS011;33128;51.580;5.170;2023-02-28T07:59:16;10.27;;;9.80;;
47381;SDS011;33128;51.580;5.170;2023-02-28T08:01:41;10.30;;;9.70;;
47381;SDS011;33128;51.580;5.170;2023-02-28T08:04:09;10.25;;;9.85;;
47381;SDS011;33128;51.580;5.170;2023-02-28T08:06:35;10.73;;;10.15;;
47381;SDS011;33128;51.580;5.170;2023-02-28T08:09:00;10.55;;;10.05;;
47381;SDS011;33128;51.580;5.170;2023-02-28T08:11:26;11.45;;;10.68;;
47381;SDS011;33128;51.580;5.170;2023-02-28T08:13:54;10.60;;;10.20;;
47381;SDS011;33128;51.580;5.170;2023-02-28T08:16:20;11.30;;;10.70;;
47381;SDS011;33128;51.580;5.170;2023-02-28T08:18:47;11.05;;;10.55;;
47381;SDS011;33128;51.580;5.170;2023-02-28T08:21:17;11.60;;;11.00;;
47381;SDS011;33128;51.580;5.170;2023-02-28T08:23:45;11.50;;;11.00;;
47381;SDS011;33128;51.580;5.170;2023-02-28T08:26:12;10.73;;;10.30;;
47381;SDS011;33128;51.580;5.170;2023-02-28T08:28:38;10.10;;;9.80;;
47381;SDS011;33128;51.580;5.170;2023-02-28T08:31:08;9.95;;;9.57;;
47381;SDS011;33128;51.580;5.170;2023-02-28T08:33:35;10.35;;;9.95;;
47381;SDS011;33128;51.580;5.170;2023-02-28T08:36:01;10.70;;;10.30;;
47381;SDS011;33128;51.580;5.170;2023-02-28T08:38:27;10.75;;;10.23;;
47381;SDS011;33128;51.580;5.170;2023-02-28T08:40:59;11.20;;;10.50;;
47381;SDS011;33128;51.580;5.170;2023-02-28T08:43:26;10.85;;;10.43;;
47381;SDS011;33128;51.580;5.170;2023-02-28T08:45:53;9.88;;;9.48;;
47381;SDS011;33128;51.580;5.170;2023-02-28T08:48:21;10.52;;;10.13;;
47381;SDS011;33128;51.580;5.170;2023-02-28T08:50:58;10.93;;;10.43;;
47381;SDS011;33128;51.580;5.170;2023-02-28T08:53:28;11.40;;;11.00;;
47381;SDS011;33128;51.580;5.170;2023-02-28T08:56:01;10.10;;;9.70;;
47381;SDS011;33128;51.580;5.170;2023-02-28T08:58:31;10.50;;;10.00;;
47381;SDS011;33128;51.580;5.170;2023-02-28T09:00:57;10.30;;;9.80;;
47381;SDS011;33128;51.580;5.170;2023-02-28T09:03:23;11.15;;;10.57;;
47381;SDS011;33128;51.580;5.170;2023-02-28T09:05:53;10.68;;;10.18;;
47381;SDS011;33128;51.580;5.170;2023-02-28T09:08:24;10.98;;;10.48;;
47381;SDS011;33128;51.580;5.170;2023-02-28T09:10:51;10.60;;;10.20;;
47381;SDS011;33128;51.580;5.170;2023-02-28T09:13:17;11.95;;;11.00;;
47381;SDS011;33128;51.580;5.170;2023-02-28T09:15:44;11.80;;;11.30;;
47381;SDS011;33128;51.580;5.170;2023-02-28T09:18:10;10.55;;;10.15;;
47381;SDS011;33128;51.580;5.170;2023-02-28T09:20:39;10.80;;;10.40;;
47381;SDS011;33128;51.580;5.170;2023-02-28T09:23:06;11.38;;;10.88;;
47381;SDS011;33128;51.580;5.170;2023-02-28T09:25:32;11.52;;;10.73;;
47381;SDS011;33128;51.580;5.170;2023-02-28T09:27:58;10.00;;;9.60;;
47381;SDS011;33128;51.580;5.170;2023-02-28T09:30:24;9.73;;;9.32;;
47381;SDS011;33128;51.580;5.170;2023-02-28T09:32:50;10.32;;;9.93;;
47381;SDS011;33128;51.580;5.170;2023-02-28T09:35:19;10.77;;;10.13;;
47381;SDS011;33128;51.580;5.170;2023-02-28T09:37:46;10.65;;;10.25;;
47381;SDS011;33128;51.580;5.170;2023-02-28T09:40:13;10.48;;;10.07;;
47381;SDS011;33128;51.580;5.170;2023-02-28T09:42:42;11.27;;;10.88;;
47381;SDS011;33128;51.580;5.170;2023-02-28T09:45:14;10.40;;;9.90;;
47381;SDS011;33128;51.580;5.170;2023-02-28T09:52:51;11.48;;;10.98;;
47381;SDS011;33128;51.580;5.170;2023-02-28T09:57:44;12.25;;;11.40;;
47381;SDS011;33128;51.580;5.170;2023-02-28T10:00:21;11.38;;;10.68;;
47381;SDS011;33128;51.580;5.170;2023-02-28T10:08:25;10.65;;;10.07;;
47381;SDS011;33128;51.580;5.170;2023-02-28T10:11:06;10.77;;;10.20;;
47381;SDS011;33128;51.580;5.170;2023-02-28T10:13:43;10.10;;;9.70;;
47381;SDS011;33128;51.580;5.170;2023-02-28T10:16:54;10.65;;;10.00;;
47381;SDS011;33128;51.580;5.170;2023-02-28T10:19:35;10.52;;;10.13;;
47381;SDS011;33128;51.580;5.170;2023-02-28T10:22:20;10.73;;;10.32;;
47381;SDS011;33128;51.580;5.170;2023-02-28T10:25:05;10.85;;;10.40;;
47381;SDS011;33128;51.580;5.170;2023-02-28T10:27:44;11.50;;;11.00;;
47381;SDS011;33128;51.580;5.170;2023-02-28T10:30:10;11.65;;;10.85;;
47381;SDS011;33128;51.580;5.170;2023-02-28T10:32:38;11.27;;;10.77;;
47381;SDS011;33128;51.580;5.170;2023-02-28T10:35:19;10.68;;;10.27;;
47381;SDS011;33128;51.580;5.170;2023-02-28T10:37:55;11.20;;;10.75;;
47381;SDS011;33128;51.580;5.170;2023-02-28T10:40:34;10.68;;;10.18;;
47381;SDS011;33128;51.580;5.170;2023-02-28T10:45:34;10.15;;;9.75;;
47381;SDS011;33128;51.580;5.170;2023-02-28T10:48:04;11.15;;;10.70;;
47381;SDS011;33128;51.580;5.170;2023-02-28T10:50:43;10.63;;;10.23;;
47381;SDS011;33128;51.580;5.170;2023-02-28T10:56:01;11.30;;;10.68;;
47381;SDS011;33128;51.580;5.170;2023-02-28T11:01:48;11.43;;;10.93;;
47381;SDS011;33128;51.580;5.170;2023-02-28T11:04:19;10.95;;;10.45;;
47381;SDS011;33128;51.580;5.170;2023-02-28T11:06:46;11.18;;;10.68;;
47381;SDS011;33128;51.580;5.170;2023-02-28T11:11:55;11.18;;;10.60;;
47381;SDS011;33128;51.580;5.170;2023-02-28T11:14:25;11.18;;;10.68;;
47381;SDS011;33128;51.580;5.170;2023-02-28T11:17:14;11.25;;;10.80;;
47381;SDS011;33128;51.580;5.170;2023-02-28T11:19:50;12.10;;;11.60;;
47381;SDS011;33128;51.580;5.170;2023-02-28T11:22:34;11.63;;;11.23;;
47381;SDS011;33128;51.580;5.170;2023-02-28T11:25:23;12.65;;;11.95;;
47381;SDS011;33128;51.580;5.170;2023-02-28T11:27:54;12.32;;;11.82;;
47381;SDS011;33128;51.580;5.170;2023-02-28T11:30:23;12.55;;;12.00;;
47381;SDS011;33128;51.580;5.170;2023-02-28T11:33:19;12.52;;;12.13;;
47381;SDS011;33128;51.580;5.170;2023-02-28T11:35:53;12.30;;;11.80;;
47381;SDS011;33128;51.580;5.170;2023-02-28T11:38:26;13.57;;;12.98;;
47381;SDS011;33128;51.580;5.170;2023-02-28T11:48:58;12.90;;;12.40;;
47381;SDS011;33128;51.580;5.170;2023-02-28T11:51:56;12.85;;;12.20;;
47381;SDS011;33128;51.580;5.170;2023-02-28T11:54:48;12.52;;;12.00;;
47381;SDS011;33128;51.580;5.170;2023-02-28T12:03:26;12.73;;;12.23;;
47381;SDS011;33128;51.580;5.170;2023-02-28T12:08:44;13.05;;;12.40;;
47381;SDS011;33128;51.580;5.170;2023-02-28T12:21:29;12.02;;;11.55;;
47381;SDS011;33128;51.580;5.170;2023-02-28T12:26:39;12.15;;;11.63;;
47381;SDS011;33128;51.580;5.170;2023-02-28T12:29:26;11.57;;;11.07;;
47381;SDS011;33128;51.580;5.170;2023-02-28T12:32:15;11.80;;;11.20;;
47381;SDS011;33128;51.580;5.170;2023-02-28T12:34:49;12.80;;;12.20;;
47381;SDS011;33128;51.580;5.170;2023-02-28T12:37:41;11.90;;;11.40;;
47381;SDS011;33128;51.580;5.170;2023-02-28T12:42:42;12.40;;;11.80;;
47381;SDS011;33128;51.580;5.170;2023-02-28T12:47:44;12.10;;;11.55;;
47381;SDS011;33128;51.580;5.170;2023-02-28T12:50:14;11.68;;;11.10;;
47381;SDS011;33128;51.580;5.170;2023-02-28T13:01:24;11.88;;;11.38;;
47381;SDS011;33128;51.580;5.170;2023-02-28T13:09:56;11.50;;;10.95;;
47381;SDS011;33128;51.580;5.170;2023-02-28T13:12:24;11.68;;;11.18;;
47381;SDS011;33128;51.580;5.170;2023-02-28T13:14:51;11.25;;;10.75;;
47381;SDS011;33128;51.580;5.170;2023-02-28T13:17:41;12.15;;;11.45;;
47381;SDS011;33128;51.580;5.170;2023-02-28T13:20:55;11.70;;;11.10;;
47381;SDS011;33128;51.580;5.170;2023-02-28T13:26:32;11.02;;;10.63;;
47381;SDS011;33128;51.580;5.170;2023-02-28T13:39:47;10.73;;;10.15;;
47381;SDS011;33128;51.580;5.170;2023-02-28T13:47:41;11.25;;;10.52;;
47381;SDS011;33128;51.580;5.170;2023-02-28T14:01:22;11.05;;;10.25;;
47381;SDS011;33128;51.580;5.170;2023-02-28T14:04:21;10.32;;;9.82;;
47381;SDS011;33128;51.580;5.170;2023-02-28T14:07:03;9.63;;;9.15;;
47381;SDS011;33128;51.580;5.170;2023-02-28T14:11:55;9.90;;;9.50;;
47381;SDS011;33128;51.580;5.170;2023-02-28T14:17:05;15.57;;;10.85;;
47381;SDS011;33128;51.580;5.170;2023-02-28T14:19:32;10.85;;;10.27;;
47381;SDS011;33128;51.580;5.170;2023-02-28T14:24:51;10.02;;;9.63;;
47381;SDS011;33128;51.580;5.170;2023-02-28T14:33:25;9.80;;;9.30;;
47381;SDS011;33128;51.580;5.170;2023-02-28T14:41:16;10.55;;;9.95;;
47381;SDS011;33128;51.580;5.170;2023-02-28T14:43:55;10.20;;;9.70;;
47381;SDS011;33128;51.580;5.170;2023-02-28T14:46:26;9.57;;;9.18;;
47381;SDS011;33128;51.580;5.170;2023-02-28T14:49:00;9.38;;;8.98;;
47381;SDS011;33128;51.580;5.170;2023-02-28T14:51:26;9.25;;;8.82;;
47381;SDS011;33128;51.580;5.170;2023-02-28T14:53:56;9.45;;;8.73;;
47381;SDS011;33128;51.580;5.170;2023-02-28T14:56:25;9.35;;;8.75;;
47381;SDS011;33128;51.580;5.170;2023-02-28T14:58:56;8.60;;;8.10;;
47381;SDS011;33128;51.580;5.170;2023-02-28T15:01:22;9.15;;;8.60;;
47381;SDS011;33128;51.580;5.170;2023-02-28T15:03:56;9.45;;;8.95;;
47381;SDS011;33128;51.580;5.170;2023-02-28T15:06:32;8.88;;;8.48;;
47381;SDS011;33128;51.580;5.170;2023-02-28T15:09:15;8.48;;;8.07;;
47381;SDS011;33128;51.580;5.170;2023-02-28T15:11:42;8.88;;;8.40;;
47381;SDS011;33128;51.580;5.170;2023-02-28T15:14:16;9.15;;;8.65;;
47381;SDS011;33128;51.580;5.170;2023-02-28T15:16:45;8.55;;;7.93;;
47381;SDS011;33128;51.580;5.170;2023-02-28T15:19:29;8.75;;;8.23;;
47381;SDS011;33128;51.580;5.170;2023-02-28T15:22:04;8.80;;;8.40;;
47381;SDS011;33128;51.580;5.170;2023-02-28T15:27:15;8.45;;;7.85;;
47381;SDS011;33128;51.580;5.170;2023-02-28T15:29:47;8.23;;;7.80;;
47381;SDS011;33128;51.580;5.170;2023-02-28T15:32:37;8.82;;;8.32;;
47381;SDS011;33128;51.580;5.170;2023-02-28T15:37:54;8.65;;;8.13;;
47381;SDS011;33128;51.580;5.170;2023-02-28T15:40:30;8.32;;;7.82;;
47381;SDS011;33128;51.580;5.170;2023-02-28T15:46:06;9.15;;;8.65;;
47381;SDS011;33128;51.580;5.170;2023-02-28T15:48:56;9.23;;;8.68;;
47381;SDS011;33128;51.580;5.170;2023-02-28T15:51:32;8.52;;;8.02;;
47381;SDS011;33128;51.580;5.170;2023-02-28T15:54:05;8.45;;;8.05;;
47381;SDS011;33128;51.580;5.170;2023-02-28T15:56:48;8.43;;;8.00;;
47381;SDS011;33128;51.580;5.170;2023-02-28T15:59:21;8.68;;;8.18;;
47381;SDS011;33128;51.580;5.170;2023-02-28T16:02:03;8.70;;;8.20;;
47381;SDS011;33128;51.580;5.170;2023-02-28T16:04:29;9.10;;;8.52;;
47381;SDS011;33128;51.580;5.170;2023-02-28T16:07:01;9.05;;;8.48;;
47381;SDS011;33128;51.580;5.170;2023-02-28T16:09:28;8.75;;;8.27;;
47381;SDS011;33128;51.580;5.170;2023-02-28T16:11:56;9.00;;;8.50;;
47381;SDS011;33128;51.580;5.170;2023-02-28T16:14:29;9.00;;;8.60;;
47381;SDS011;33128;51.580;5.170;2023-02-28T16:17:03;8.38;;;7.85;;
47381;SDS011;33128;51.580;5.170;2023-02-28T16:19:30;8.20;;;7.90;;
47381;SDS011;33128;51.580;5.170;2023-02-28T16:21:57;8.63;;;8.13;;
47381;SDS011;33128;51.580;5.170;2023-02-28T16:24:26;8.52;;;8.13;;
47381;SDS011;33128;51.580;5.170;2023-02-28T16:26:52;8.27;;;7.70;;
47381;SDS011;33128;51.580;5.170;2023-02-28T16:29:23;7.78;;;7.40;;
47381;SDS011;33128;51.580;5.170;2023-02-28T16:31:51;8.60;;;8.10;;
47381;SDS011;33128;51.580;5.170;2023-02-28T16:34:18;8.50;;;7.95;;
47381;SDS011;33128;51.580;5.170;2023-02-28T16:36:46;8.65;;;8.15;;
47381;SDS011;33128;51.580;5.170;2023-02-28T16:39:12;8.60;;;8.10;;
47381;SDS011;33128;51.580;5.170;2023-02-28T16:41:38;9.32;;;8.50;;
47381;SDS011;33128;51.580;5.170;2023-02-28T16:46:52;8.38;;;7.97;;
47381;SDS011;33128;51.580;5.170;2023-02-28T16:49:18;8.43;;;7.93;;
47381;SDS011;33128;51.580;5.170;2023-02-28T16:51:44;8.77;;;8.38;;
47381;SDS011;33128;51.580;5.170;2023-02-28T16:54:09;10.82;;;10.00;;
47381;SDS011;33128;51.580;5.170;2023-02-28T16:56:43;10.27;;;9.63;;
47381;SDS011;33128;51.580;5.170;2023-02-28T16:59:13;10.43;;;9.93;;
47381;SDS011;33128;51.580;5.170;2023-02-28T17:01:43;10.57;;;10.07;;
47381;SDS011;33128;51.580;5.170;2023-02-28T17:04:09;11.43;;;10.82;;
47381;SDS011;33128;51.580;5.170;2023-02-28T17:06:37;10.85;;;10.15;;
47381;SDS011;33128;51.580;5.170;2023-02-28T17:09:03;11.05;;;10.55;;
47381;SDS011;33128;51.580;5.170;2023-02-28T17:11:29;11.38;;;10.88;;
47381;SDS011;33128;51.580;5.170;2023-02-28T17:13:55;11.85;;;11.15;;
47381;SDS011;33128;51.580;5.170;2023-02-28T17:16:30;10.77;;;10.25;;
47381;SDS011;33128;51.580;5.170;2023-02-28T17:19:04;11.23;;;10.63;;
47381;SDS011;33128;51.580;5.170;2023-02-28T17:21:31;10.90;;;10.20;;
47381;SDS011;33128;51.580;5.170;2023-02-28T17:24:09;11.02;;;10.52;;
47381;SDS011;33128;51.580;5.170;2023-02-28T17:26:42;11.40;;;10.82;;
47381;SDS011;33128;51.580;5.170;2023-02-28T17:29:14;11.00;;;10.40;;
47381;SDS011;33128;51.580;5.170;2023-02-28T17:31:42;11.75;;;10.88;;
47381;SDS011;33128;51.580;5.170;2023-02-28T17:34:08;11.90;;;11.40;;
47381;SDS011;33128;51.580;5.170;2023-02-28T17:36:33;12.00;;;11.30;;
47381;SDS011;33128;51.580;5.170;2023-02-28T17:39:00;11.38;;;10.88;;
47381;SDS011;33128;51.580;5.170;2023-02-28T17:41:33;12.13;;;11.63;;
47381;SDS011;33128;51.580;5.170;2023-02-28T17:43:59;12.35;;;11.68;;